sensor_id;sensor_type;location;lat;lon;timestamp;pressure;altitude;pressure_sealevel;temperature;humidity
63819;BME280;49970;54.976;73.248;2022-11-15T00:00:35;97300.69;;;1.04;100.00
63819;BME280;49970;54.976;73.248;2022-11-15T00:03:30;97296.44;;;1.03;100.00
63819;BME280;49970;54.976;73.248;2022-11-15T00:06:14;97275.16;;;0.86;100.00
63819;BME280;49970;54.976;73.248;2022-11-15T00:08:59;97303.31;;;1.04;100.00
63819;BME280;49970;54.976;73.248;2022-11-15T00:11:44;97304.25;;;1.03;100.00
63819;BME280;49970;54.976;73.248;2022-11-15T00:14:32;97291.47;;;0.99;100.00
63819;BME280;49970;54.976;73.248;2022-11-15T00:17:17;97296.31;;;1.04;100.00
63819;BME280;49970;54.976;73.248;2022-11-15T00:20:09;97295.47;;;1.04;100.00
63819;BME280;49970;54.976;73.248;2022-11-15T00:22:54;97292.19;;;1.02;100.00
63819;BME280;49970;54.976;73.248;2022-11-15T00:25:38;97294.56;;;1.05;100.00
63819;BME280;49970;54.976;73.248;2022-11-15T00:28:33;97300.69;;;1.04;100.00
63819;BME280;49970;54.976;73.248;2022-11-15T00:31:37;97286.00;;;1.03;100.00
63819;BME280;49970;54.976;73.248;2022-11-15T00:35:22;97288.03;;;0.99;100.00
63819;BME280;49970;54.976;73.248;2022-11-15T00:38:07;97287.94;;;1.01;100.00
63819;BME280;49970;54.976;73.248;2022-11-15T00:41:03;97287.66;;;1.04;100.00
63819;BME280;49970;54.976;73.248;2022-11-15T00:43:48;97291.09;;;1.04;100.00
63819;BME280;49970;54.976;73.248;2022-11-15T00:46:32;97287.66;;;1.04;100.00
63819;BME280;49970;54.976;73.248;2022-11-15T00:49:27;97287.56;;;1.05;100.00
63819;BME280;49970;54.976;73.248;2022-11-15T00:52:11;97289.34;;;1.05;100.00
63819;BME280;49970;54.976;73.248;2022-11-15T00:54:56;97285.06;;;1.04;100.00
63819;BME280;49970;54.976;73.248;2022-11-15T00:57:51;97288.63;;;1.03;100.00
63819;BME280;49970;54.976;73.248;2022-11-15T01:00:35;97281.63;;;1.03;100.00
63819;BME280;49970;54.976;73.248;2022-11-15T01:03:20;97286.84;;;1.03;100.00
63819;BME280;49970;54.976;73.248;2022-11-15T01:06:09;97267.56;;;0.94;100.00
63819;BME280;49970;54.976;73.248;2022-11-15T01:08:54;97285.06;;;1.04;100.00
63819;BME280;49970;54.976;73.248;2022-11-15T01:11:43;97278.19;;;1.03;100.00
63819;BME280;49970;54.976;73.248;2022-11-15T01:14:33;97287.66;;;1.04;100.00
63819;BME280;49970;54.976;73.248;2022-11-15T01:17:23;97287.56;;;1.05;100.00
63819;BME280;49970;54.976;73.248;2022-11-15T01:20:08;97274.63;;;1.04;100.00
63819;BME280;49970;54.976;73.248;2022-11-15T01:23:13;97277.25;;;1.04;100.00
63819;BME280;49970;54.976;73.248;2022-11-15T01:27:47;97276.56;;;1.02;100.00
63819;BME280;49970;54.976;73.248;2022-11-15T01:31:57;97271.81;;;0.95;100.00
63819;BME280;49970;54.976;73.248;2022-11-15T01:36:08;97278.56;;;0.98;100.00
63819;BME280;49970;54.976;73.248;2022-11-15T01:40:17;97272.63;;;0.96;100.00
63819;BME280;49970;54.976;73.248;2022-11-15T01:44:31;97269.59;;;0.91;100.00
63819;BME280;49970;54.976;73.248;2022-11-15T01:48:35;97274.78;;;0.91;100.00
63819;BME280;49970;54.976;73.248;2022-11-15T01:52:44;97268.91;;;0.89;100.00
63819;BME280;49970;54.976;73.248;2022-11-15T01:56:58;97272.19;;;0.91;100.00
63819;BME280;49970;54.976;73.248;2022-11-15T02:01:06;97270.41;;;0.91;100.00
63819;BME280;49970;54.976;73.248;2022-11-15T02:05:15;97277.53;;;0.89;100.00
63819;BME280;49970;54.976;73.248;2022-11-15T02:09:24;97280.72;;;0.93;100.00
63819;BME280;49970;54.976;73.248;2022-11-15T02:14:11;97284.25;;;0.92;100.00
63819;BME280;49970;54.976;73.248;2022-11-15T02:18:24;97284.25;;;0.92;100.00
63819;BME280;49970;54.976;73.248;2022-11-15T02:33:41;97291.97;;;0.93;100.00
63819;BME280;49970;54.976;73.248;2022-11-15T02:40:33;97292.94;;;0.92;100.00
63819;BME280;49970;54.976;73.248;2022-11-15T02:44:21;97304.41;;;0.90;100.00
63819;BME280;49970;54.976;73.248;2022-11-15T02:48:10;97291.38;;;0.90;100.00
63819;BME280;49970;54.976;73.248;2022-11-15T02:51:01;97292.78;;;0.94;100.00
63819;BME280;49970;54.976;73.248;2022-11-15T02:53:46;97286.63;;;0.95;100.00
63819;BME280;49970;54.976;73.248;2022-11-15T02:56:36;97293.75;;;0.93;100.00
63819;BME280;49970;54.976;73.248;2022-11-15T03:08:32;97292.44;;;0.98;100.00
63819;BME280;49970;54.976;73.248;2022-11-15T03:11:21;97291.59;;;0.98;100.00
63819;BME280;49970;54.976;73.248;2022-11-15T03:17:24;97300.81;;;1.02;100.00
63819;BME280;49970;54.976;73.248;2022-11-15T03:20:13;97292.66;;;0.95;100.00
63819;BME280;49970;54.976;73.248;2022-11-15T03:23:10;97300.69;;;1.04;100.00
63819;BME280;49970;54.976;73.248;2022-11-15T03:25:59;97305.66;;;1.07;100.00
63819;BME280;49970;54.976;73.248;2022-11-15T03:28:56;97303.78;;;1.09;100.00
63819;BME280;49970;54.976;73.248;2022-11-15T03:31:47;97298.09;;;1.04;100.00
63819;BME280;49970;54.976;73.248;2022-11-15T03:34:42;97302.81;;;1.10;100.00
63819;BME280;49970;54.976;73.248;2022-11-15T03:37:35;97296.88;;;1.08;100.00
63819;BME280;49970;54.976;73.248;2022-11-15T03:40:25;97299.13;;;1.12;100.00
63819;BME280;49970;54.976;73.248;2022-11-15T03:46:24;97303.03;;;1.18;100.00
63819;BME280;49970;54.976;73.248;2022-11-15T03:49:26;97307.16;;;1.20;100.00
63819;BME280;49970;54.976;73.248;2022-11-15T03:52:12;97293.66;;;1.15;100.00
63819;BME280;49970;54.976;73.248;2022-11-15T03:55:10;97303.47;;;1.23;100.00
63819;BME280;49970;54.976;73.248;2022-11-15T03:57:57;97300.88;;;1.23;100.00
63819;BME280;49970;54.976;73.248;2022-11-15T04:00:43;97306.91;;;1.23;100.00
63819;BME280;49970;54.976;73.248;2022-11-15T04:03:28;97306.78;;;1.25;100.00
63819;BME280;49970;54.976;73.248;2022-11-15T04:06:12;97306.78;;;1.25;100.00
63819;BME280;49970;54.976;73.248;2022-11-15T04:09:03;97297.81;;;1.18;100.00
63819;BME280;49970;54.976;73.248;2022-11-15T04:11:53;97313.78;;;1.24;100.00
63819;BME280;49970;54.976;73.248;2022-11-15T04:14:41;97307.16;;;1.20;100.00
63819;BME280;49970;54.976;73.248;2022-11-15T04:17:52;97315.44;;;1.26;100.00
63819;BME280;49970;54.976;73.248;2022-11-15T04:20:37;97319.81;;;1.25;100.00
63819;BME280;49970;54.976;73.248;2022-11-15T04:23:40;97322.91;;;1.30;100.00
63819;BME280;49970;54.976;73.248;2022-11-15T04:26:37;97321.22;;;1.29;100.00
63819;BME280;49970;54.976;73.248;2022-11-15T04:29:46;97325.59;;;1.29;100.00
63819;BME280;49970;54.976;73.248;2022-11-15T04:32:50;97325.75;;;1.27;100.00
63819;BME280;49970;54.976;73.248;2022-11-15T04:35:53;97323.13;;;1.27;100.00
63819;BME280;49970;54.976;73.248;2022-11-15T04:39:15;97316.66;;;1.21;100.00
63819;BME280;49970;54.976;73.248;2022-11-15T04:42:19;97327.53;;;1.27;100.00
63819;BME280;49970;54.976;73.248;2022-11-15T04:45:23;97312.38;;;1.20;100.00
63819;BME280;49970;54.976;73.248;2022-11-15T04:48:13;97327.28;;;1.30;100.00
63819;BME280;49970;54.976;73.248;2022-11-15T04:51:08;97299.59;;;1.17;100.00
63819;BME280;49970;54.976;73.248;2022-11-15T04:54:03;97323.34;;;1.35;100.00
63819;BME280;49970;54.976;73.248;2022-11-15T04:56:47;97330.78;;;1.40;100.00
63819;BME280;49970;54.976;73.248;2022-11-15T04:59:32;97318.56;;;1.40;100.00
63819;BME280;49970;54.976;73.248;2022-11-15T05:02:17;97328.03;;;1.41;100.00
63819;BME280;49970;54.976;73.248;2022-11-15T05:05:22;97328.63;;;1.45;100.00
63819;BME280;49970;54.976;73.248;2022-11-15T05:08:18;97331.38;;;1.43;100.00
63819;BME280;49970;54.976;73.248;2022-11-15T05:11:13;97328.66;;;1.34;100.00
63819;BME280;49970;54.976;73.248;2022-11-15T05:13:57;97342.63;;;1.44;100.00
63819;BME280;49970;54.976;73.248;2022-11-15T05:16:42;97330.66;;;1.41;100.00
63819;BME280;49970;54.976;73.248;2022-11-15T05:19:38;97340.84;;;1.44;100.00
63819;BME280;49970;54.976;73.248;2022-11-15T05:22:22;97337.56;;;1.42;100.00
63819;BME280;49970;54.976;73.248;2022-11-15T05:25:08;97341.81;;;1.43;100.00
63819;BME280;49970;54.976;73.248;2022-11-15T05:27:52;97344.50;;;1.42;100.00
63819;BME280;49970;54.976;73.248;2022-11-15T05:30:37;97348.91;;;1.41;100.00
63819;BME280;49970;54.976;73.248;2022-11-15T05:33:33;97349.88;;;1.40;100.00
63819;BME280;49970;54.976;73.248;2022-11-15T05:36:40;97342.56;;;1.34;100.00
63819;BME280;49970;54.976;73.248;2022-11-15T05:39:25;97353.31;;;1.41;100.00
63819;BME280;49970;54.976;73.248;2022-11-15T05:42:16;97355.22;;;1.39;100.00
63819;BME280;49970;54.976;73.248;2022-11-15T05:45:20;97358.50;;;1.41;100.00
63819;BME280;49970;54.976;73.248;2022-11-15T05:49:01;97357.69;;;1.40;100.00
63819;BME280;49970;54.976;73.248;2022-11-15T05:52:24;97356.03;;;1.39;100.00
63819;BME280;49970;54.976;73.248;2022-11-15T05:55:10;97364.44;;;1.43;100.00
63819;BME280;49970;54.976;73.248;2022-11-15T05:58:00;97362.78;;;1.42;100.00
63819;BME280;49970;54.976;73.248;2022-11-15T06:00:45;97356.63;;;1.43;100.00
63819;BME280;49970;54.976;73.248;2022-11-15T06:03:30;97364.44;;;1.43;100.00
63819;BME280;49970;54.976;73.248;2022-11-15T06:06:19;97367.16;;;1.41;100.00
63819;BME280;49970;54.976;73.248;2022-11-15T06:09:14;97359.59;;;1.38;100.00
63819;BME280;49970;54.976;73.248;2022-11-15T06:12:03;97369.41;;;1.46;100.00
63819;BME280;49970;54.976;73.248;2022-11-15T06:14:48;97360.06;;;1.43;100.00
63819;BME280;49970;54.976;73.248;2022-11-15T06:17:32;97344.06;;;1.37;100.00
63819;BME280;49970;54.976;73.248;2022-11-15T06:20:28;97362.44;;;1.46;100.00
63819;BME280;49970;54.976;73.248;2022-11-15T06:23:13;97369.53;;;1.44;100.00
63819;BME280;49970;54.976;73.248;2022-11-15T06:25:58;97372.97;;;1.45;100.00
63819;BME280;49970;54.976;73.248;2022-11-15T06:28:44;97375.34;;;1.48;100.00
63819;BME280;49970;54.976;73.248;2022-11-15T06:31:33;97371.75;;;1.49;100.00
63819;BME280;49970;54.976;73.248;2022-11-15T06:34:29;97366.31;;;1.52;100.00
63819;BME280;49970;54.976;73.248;2022-11-15T06:37:14;97370.69;;;1.52;100.00
63819;BME280;49970;54.976;73.248;2022-11-15T06:40:05;97368.91;;;1.52;100.00
63819;BME280;49970;54.976;73.248;2022-11-15T06:42:50;97372.47;;;1.51;100.00
63819;BME280;49970;54.976;73.248;2022-11-15T06:45:34;97367.50;;;1.48;100.00
63819;BME280;49970;54.976;73.248;2022-11-15T06:48:19;97358.50;;;1.41;100.00
63819;BME280;49970;54.976;73.248;2022-11-15T06:51:04;97364.19;;;1.46;100.00
63819;BME280;49970;54.976;73.248;2022-11-15T06:53:55;97363.50;;;1.44;100.00
63819;BME280;49970;54.976;73.248;2022-11-15T06:56:39;97367.13;;;1.53;100.00
63819;BME280;49970;54.976;73.248;2022-11-15T06:59:24;97364.53;;;1.53;100.00
63819;BME280;49970;54.976;73.248;2022-11-15T07:02:13;97363.94;;;1.49;100.00
63819;BME280;49970;54.976;73.248;2022-11-15T07:04:59;97368.69;;;1.55;100.00
63819;BME280;49970;54.976;73.248;2022-11-15T07:07:51;97366.44;;;1.51;100.00
63819;BME280;49970;54.976;73.248;2022-11-15T07:11:03;97373.31;;;1.52;100.00
63819;BME280;49970;54.976;73.248;2022-11-15T07:19:26;97384.56;;;1.52;100.00
63819;BME280;49970;54.976;73.248;2022-11-15T07:27:56;97381.38;;;1.48;100.00
63819;BME280;49970;54.976;73.248;2022-11-15T07:32:30;97386.44;;;1.50;100.00
63819;BME280;49970;54.976;73.248;2022-11-15T07:36:40;97390.59;;;1.53;100.00
63819;BME280;49970;54.976;73.248;2022-11-15T07:40:55;97397.75;;;1.51;100.00
63819;BME280;49970;54.976;73.248;2022-11-15T07:45:00;97402.97;;;1.51;100.00
63819;BME280;49970;54.976;73.248;2022-11-15T07:53:17;97412.66;;;1.48;100.00
63819;BME280;49970;54.976;73.248;2022-11-15T08:01:34;97418.59;;;1.51;100.00
63819;BME280;49970;54.976;73.248;2022-11-15T08:05:50;97419.81;;;1.46;100.00
63819;BME280;49970;54.976;73.248;2022-11-15T08:10:00;97420.03;;;1.43;100.00
63819;BME280;49970;54.976;73.248;2022-11-15T08:14:10;97426.09;;;1.44;100.00
63819;BME280;49970;54.976;73.248;2022-11-15T08:22:28;97432.72;;;1.48;100.00
63819;BME280;49970;54.976;73.248;2022-11-15T08:30:51;97451.78;;;1.48;100.00
63819;BME280;49970;54.976;73.248;2022-11-15T08:35:01;97453.59;;;1.48;100.00
63819;BME280;49970;54.976;73.248;2022-11-15T08:39:17;97455.22;;;1.49;100.00
63819;BME280;49970;54.976;73.248;2022-11-15T08:43:27;97456.78;;;1.52;100.00
63819;BME280;49970;54.976;73.248;2022-11-15T08:47:38;97455.47;;;1.46;100.00
63819;BME280;49970;54.976;73.248;2022-11-15T08:55:55;97479.06;;;1.56;100.00
63819;BME280;49970;54.976;73.248;2022-11-15T09:16:35;97497.41;;;1.54;100.00
63819;BME280;49970;54.976;73.248;2022-11-15T09:29:00;97529.78;;;1.63;100.00
63819;BME280;49970;54.976;73.248;2022-11-15T09:33:09;97532.50;;;1.61;100.00
63819;BME280;49970;54.976;73.248;2022-11-15T09:37:19;97539.28;;;1.64;100.00
63819;BME280;49970;54.976;73.248;2022-11-15T09:49:56;97558.97;;;1.68;100.00
63819;BME280;49970;54.976;73.248;2022-11-15T09:54:36;97558.97;;;1.68;100.00
63819;BME280;49970;54.976;73.248;2022-11-15T10:05:46;97570.47;;;1.65;100.00
63819;BME280;49970;54.976;73.248;2022-11-15T10:09:51;97584.31;;;1.66;100.00
63819;BME280;49970;54.976;73.248;2022-11-15T10:13:41;97588.59;;;1.67;100.00
63819;BME280;49970;54.976;73.248;2022-11-15T10:21:20;97604.25;;;1.67;100.00
63819;BME280;49970;54.976;73.248;2022-11-15T10:29:01;97621.44;;;1.69;100.00
63819;BME280;49970;54.976;73.248;2022-11-15T10:36:45;97630.59;;;1.64;100.00
63819;BME280;49970;54.976;73.248;2022-11-15T10:40:42;97642.56;;;1.66;100.00
63819;BME280;49970;54.976;73.248;2022-11-15T10:44:18;97650.75;;;1.62;100.00
63819;BME280;49970;54.976;73.248;2022-11-15T10:58:56;97685.59;;;1.49;100.00
63819;BME280;49970;54.976;73.248;2022-11-15T11:02:57;97690.34;;;1.44;100.00
63819;BME280;49970;54.976;73.248;2022-11-15T11:06:59;97696.50;;;1.43;100.00
63819;BME280;49970;54.976;73.248;2022-11-15T12:14:40;97794.66;;;1.44;100.00
63819;BME280;49970;54.976;73.248;2022-11-15T12:17:11;97793.00;;;1.43;100.00
63819;BME280;49970;54.976;73.248;2022-11-15T12:19:47;97804.97;;;1.46;100.00
63819;BME280;49970;54.976;73.248;2022-11-15T12:22:36;97794.78;;;1.43;100.00
63819;BME280;49970;54.976;73.248;2022-11-15T12:25:22;97809.97;;;1.49;100.00
63819;BME280;49970;54.976;73.248;2022-11-15T12:28:31;97820.41;;;1.49;100.00
63819;BME280;49970;54.976;73.248;2022-11-15T12:32:21;97823.13;;;1.47;100.00
63819;BME280;49970;54.976;73.248;2022-11-15T12:43:59;97838.88;;;1.46;100.00
63819;BME280;49970;54.976;73.248;2022-11-15T12:55:29;97861.03;;;1.40;100.00
63819;BME280;49970;54.976;73.248;2022-11-15T12:59:38;97869.59;;;1.42;100.00
63819;BME280;49970;54.976;73.248;2022-11-15T13:03:32;97880.13;;;1.41;100.00
63819;BME280;49970;54.976;73.248;2022-11-15T13:15:30;97898.09;;;1.33;100.00
63819;BME280;49970;54.976;73.248;2022-11-15T13:18:53;97911.97;;;1.33;100.00
63819;BME280;49970;54.976;73.248;2022-11-15T13:21:23;97897.47;;;1.29;100.00
63819;BME280;49970;54.976;73.248;2022-11-15T13:24:14;97905.09;;;1.32;100.00
63819;BME280;49970;54.976;73.248;2022-11-15T13:26:51;97917.72;;;1.38;100.00
63819;BME280;49970;54.976;73.248;2022-11-15T13:29:23;97925.28;;;1.41;100.00
63819;BME280;49970;54.976;73.248;2022-11-15T13:31:49;97924.69;;;1.38;100.00
63819;BME280;49970;54.976;73.248;2022-11-15T13:34:29;97924.69;;;1.38;100.00
63819;BME280;49970;54.976;73.248;2022-11-15T13:37:28;97932.63;;;1.36;100.00
63819;BME280;49970;54.976;73.248;2022-11-15T13:40:19;97923.97;;;1.36;100.00
63819;BME280;49970;54.976;73.248;2022-11-15T13:42:46;97938.56;;;1.38;100.00
63819;BME280;49970;54.976;73.248;2022-11-15T13:45:23;97940.44;;;1.36;100.00
63819;BME280;49970;54.976;73.248;2022-11-15T13:47:57;97948.38;;;1.35;100.00
63819;BME280;49970;54.976;73.248;2022-11-15T13:50:46;97958.69;;;1.36;100.00
63819;BME280;49970;54.976;73.248;2022-11-15T13:54:57;97959.75;;;1.34;100.00
63819;BME280;49970;54.976;73.248;2022-11-15T14:02:38;97971.66;;;1.25;100.00
63819;BME280;49970;54.976;73.248;2022-11-15T14:06:29;97982.00;;;1.27;100.00
63819;BME280;49970;54.976;73.248;2022-11-15T14:09:40;97985.44;;;1.27;100.00
63819;BME280;49970;54.976;73.248;2022-11-15T14:12:27;97989.91;;;1.25;100.00
63819;BME280;49970;54.976;73.248;2022-11-15T14:15:18;97998.69;;;1.24;100.00
63819;BME280;49970;54.976;73.248;2022-11-15T14:17:49;97998.88;;;1.21;100.00
63819;BME280;49970;54.976;73.248;2022-11-15T14:20:37;98006.84;;;1.19;100.00
63819;BME280;49970;54.976;73.248;2022-11-15T14:23:28;98003.91;;;1.11;100.00
63819;BME280;49970;54.976;73.248;2022-11-15T14:25:59;98014.56;;;1.08;100.00
63819;BME280;49970;54.976;73.248;2022-11-15T14:30:57;98021.88;;;1.03;100.00
63819;BME280;49970;54.976;73.248;2022-11-15T14:33:36;98027.06;;;1.03;100.00
63819;BME280;49970;54.976;73.248;2022-11-15T14:38:49;98036.28;;;1.09;100.00
63819;BME280;49970;54.976;73.248;2022-11-15T14:41:23;98039.59;;;0.98;100.00
63819;BME280;49970;54.976;73.248;2022-11-15T14:43:51;98042.31;;;0.96;100.00
63819;BME280;49970;54.976;73.248;2022-11-15T14:46:18;98039.72;;;0.96;100.00
63819;BME280;49970;54.976;73.248;2022-11-15T14:48:44;98044.38;;;0.91;100.00
63819;BME280;49970;54.976;73.248;2022-11-15T14:51:16;98048.69;;;0.92;100.00
63819;BME280;49970;54.976;73.248;2022-11-15T14:53:44;98052.31;;;0.90;100.00
63819;BME280;49970;54.976;73.248;2022-11-15T14:56:11;98045.84;;;0.83;100.00
63819;BME280;49970;54.976;73.248;2022-11-15T14:58:39;98051.81;;;0.85;100.00
63819;BME280;49970;54.976;73.248;2022-11-15T15:01:21;98057.53;;;0.90;100.00
63819;BME280;49970;54.976;73.248;2022-11-15T15:03:49;98057.84;;;0.85;100.00
63819;BME280;49970;54.976;73.248;2022-11-15T15:06:18;98073.28;;;0.88;100.00
63819;BME280;49970;54.976;73.248;2022-11-15T15:08:49;98076.50;;;0.92;100.00
63819;BME280;49970;54.976;73.248;2022-11-15T15:11:27;98076.81;;;0.87;100.00
63819;BME280;49970;54.976;73.248;2022-11-15T15:14:04;98075.88;;;0.88;100.00
63819;BME280;49970;54.976;73.248;2022-11-15T15:16:30;98079.41;;;0.87;100.00
63819;BME280;49970;54.976;73.248;2022-11-15T15:18:56;98076.41;;;0.81;100.00
63819;BME280;49970;54.976;73.248;2022-11-15T15:21:24;98084.09;;;0.82;100.00
63819;BME280;49970;54.976;73.248;2022-11-15T15:23:52;98083.47;;;0.79;100.00
63819;BME280;49970;54.976;73.248;2022-11-15T15:26:23;98083.59;;;0.77;100.00
63819;BME280;49970;54.976;73.248;2022-11-15T15:28:54;98095.59;;;0.80;100.00
63819;BME280;49970;54.976;73.248;2022-11-15T15:31:21;98104.31;;;0.79;100.00
63819;BME280;49970;54.976;73.248;2022-11-15T15:33:47;98106.09;;;0.78;100.00
63819;BME280;49970;54.976;73.248;2022-11-15T15:36:23;98113.38;;;0.73;100.00
63819;BME280;49970;54.976;73.248;2022-11-15T15:38:49;98116.19;;;0.70;100.00
63819;BME280;49970;54.976;73.248;2022-11-15T15:41:16;98126.59;;;0.70;100.00
63819;BME280;49970;54.976;73.248;2022-11-15T15:43:43;98123.47;;;0.65;100.00
63819;BME280;49970;54.976;73.248;2022-11-15T15:46:17;98133.59;;;0.69;100.00
63819;BME280;49970;54.976;73.248;2022-11-15T15:48:47;98136.38;;;0.66;100.00
63819;BME280;49970;54.976;73.248;2022-11-15T15:51:13;98139.94;;;0.65;100.00
63819;BME280;49970;54.976;73.248;2022-11-15T15:53:43;98143.88;;;0.58;100.00
63819;BME280;49970;54.976;73.248;2022-11-15T15:56:19;98145.63;;;0.58;100.00
63819;BME280;49970;54.976;73.248;2022-11-15T15:58:55;98163.69;;;0.61;100.00
63819;BME280;49970;54.976;73.248;2022-11-15T16:01:31;98163.03;;;0.57;100.00
63819;BME280;49970;54.976;73.248;2022-11-15T16:03:57;98172.81;;;0.54;99.62
63819;BME280;49970;54.976;73.248;2022-11-15T16:06:36;98171.34;;;0.49;99.96
63819;BME280;49970;54.976;73.248;2022-11-15T16:09:04;98180.28;;;0.45;99.39
63819;BME280;49970;54.976;73.248;2022-11-15T16:11:31;98170.38;;;0.38;99.83
63819;BME280;49970;54.976;73.248;2022-11-15T16:14:07;98174.94;;;0.34;99.30
63819;BME280;49970;54.976;73.248;2022-11-15T16:16:44;98193.19;;;0.34;99.45
63819;BME280;49970;54.976;73.248;2022-11-15T16:19:20;98187.63;;;0.26;98.83
63819;BME280;49970;54.976;73.248;2022-11-15T16:21:46;98197.28;;;0.24;99.14
63819;BME280;49970;54.976;73.248;2022-11-15T16:24:12;98191.16;;;0.11;99.17
63819;BME280;49970;54.976;73.248;2022-11-15T16:26:39;98207.97;;;0.19;98.84
63819;BME280;49970;54.976;73.248;2022-11-15T16:29:15;98213.28;;;0.18;99.12
63819;BME280;49970;54.976;73.248;2022-11-15T16:31:41;98216.25;;;0.12;98.70
63819;BME280;49970;54.976;73.248;2022-11-15T16:34:12;98220.38;;;0.02;98.17
63819;BME280;49970;54.976;73.248;2022-11-15T16:36:48;98218.25;;;-0.06;98.20
63819;BME280;49970;54.976;73.248;2022-11-15T16:39:15;98222.06;;;-0.12;98.23
63819;BME280;49970;54.976;73.248;2022-11-15T16:41:44;98229.03;;;-0.12;98.08
63819;BME280;49970;54.976;73.248;2022-11-15T16:44:22;98246.00;;;-0.21;97.32
63819;BME280;49970;54.976;73.248;2022-11-15T16:47:01;98244.91;;;-0.31;97.09
63819;BME280;49970;54.976;73.248;2022-11-15T16:49:27;98237.94;;;-0.45;97.05
63819;BME280;49970;54.976;73.248;2022-11-15T16:51:53;98254.09;;;-0.40;96.92
63819;BME280;49970;54.976;73.248;2022-11-15T16:54:29;98256.22;;;-0.46;96.62
63819;BME280;49970;54.976;73.248;2022-11-15T16:56:56;98263.56;;;-0.53;96.02
63819;BME280;49970;54.976;73.248;2022-11-15T16:59:23;98268.00;;;-0.55;96.27
63819;BME280;49970;54.976;73.248;2022-11-15T17:02:11;98266.22;;;-0.55;96.04
63819;BME280;49970;54.976;73.248;2022-11-15T17:06:04;98270.41;;;-0.66;96.30
63819;BME280;49970;54.976;73.248;2022-11-15T17:09:55;98270.00;;;-0.74;96.13
63819;BME280;49970;54.976;73.248;2022-11-15T17:12:41;98261.31;;;-0.89;95.56
63819;BME280;49970;54.976;73.248;2022-11-15T17:15:18;98262.97;;;-0.88;95.80
63819;BME280;49970;54.976;73.248;2022-11-15T17:17:53;98278.41;;;-0.85;95.90
63819;BME280;49970;54.976;73.248;2022-11-15T17:20:25;98277.31;;;-0.81;95.70
63819;BME280;49970;54.976;73.248;2022-11-15T17:23:01;98281.84;;;-0.85;95.37
63819;BME280;49970;54.976;73.248;2022-11-15T17:25:27;98288.63;;;-0.82;95.90
63819;BME280;49970;54.976;73.248;2022-11-15T17:27:55;98295.88;;;-0.87;95.37
63819;BME280;49970;54.976;73.248;2022-11-15T17:30:21;98300.97;;;-0.86;95.69
63819;BME280;49970;54.976;73.248;2022-11-15T17:32:57;98304.50;;;-0.87;95.75
63819;BME280;49970;54.976;73.248;2022-11-15T17:35:34;98309.88;;;-0.90;95.47
63819;BME280;49970;54.976;73.248;2022-11-15T17:38:00;98310.84;;;-0.92;95.49
63819;BME280;49970;54.976;73.248;2022-11-15T17:40:26;98318.66;;;-0.92;95.26
63819;BME280;49970;54.976;73.248;2022-11-15T17:42:52;98322.69;;;-0.87;95.60
63819;BME280;49970;54.976;73.248;2022-11-15T17:45:20;98318.22;;;-0.85;95.62
63819;BME280;49970;54.976;73.248;2022-11-15T17:47:46;98322.06;;;-0.76;95.41
63819;BME280;49970;54.976;73.248;2022-11-15T17:50:32;98324.66;;;-0.76;94.87
63819;BME280;49970;54.976;73.248;2022-11-15T17:54:25;98322.69;;;-0.87;95.01
63819;BME280;49970;54.976;73.248;2022-11-15T17:57:56;98325.63;;;-0.93;94.91
63819;BME280;49970;54.976;73.248;2022-11-15T18:00:23;98337.72;;;-0.92;95.10
63819;BME280;49970;54.976;73.248;2022-11-15T18:02:49;98312.31;;;-1.03;95.13
63819;BME280;49970;54.976;73.248;2022-11-15T18:05:15;98339.03;;;-0.85;94.95
63819;BME280;49970;54.976;73.248;2022-11-15T18:07:51;98343.97;;;-0.80;95.39
63819;BME280;49970;54.976;73.248;2022-11-15T18:10:17;98349.00;;;-0.77;95.39
63819;BME280;49970;54.976;73.248;2022-11-15T18:12:49;98349.91;;;-0.78;94.89
63819;BME280;49970;54.976;73.248;2022-11-15T18:15:15;98349.34;;;-0.83;94.85
63819;BME280;49970;54.976;73.248;2022-11-15T18:17:43;98355.19;;;-0.80;94.94
63819;BME280;49970;54.976;73.248;2022-11-15T18:20:10;98357.47;;;-0.89;94.98
63819;BME280;49970;54.976;73.248;2022-11-15T18:22:37;98354.41;;;-0.96;95.08
63819;BME280;49970;54.976;73.248;2022-11-15T18:25:23;98366.19;;;-0.90;95.12
63819;BME280;49970;54.976;73.248;2022-11-15T18:29:02;98364.69;;;-0.79;95.24
63819;BME280;49970;54.976;73.248;2022-11-15T18:31:44;98358.28;;;-0.73;95.40
63819;BME280;49970;54.976;73.248;2022-11-15T18:34:27;98346.50;;;-0.79;95.23
63819;BME280;49970;54.976;73.248;2022-11-15T18:37:00;98368.03;;;-0.77;95.04
63819;BME280;49970;54.976;73.248;2022-11-15T18:39:34;98372.06;;;-0.87;94.36
63819;BME280;49970;54.976;73.248;2022-11-15T18:42:03;98374.66;;;-1.03;94.40
63819;BME280;49970;54.976;73.248;2022-11-15T18:44:32;98359.19;;;-1.20;94.56
63819;BME280;49970;54.976;73.248;2022-11-15T18:47:03;98372.31;;;-1.23;94.61
63819;BME280;49970;54.976;73.248;2022-11-15T18:49:33;98380.53;;;-1.31;94.71
63819;BME280;49970;54.976;73.248;2022-11-15T18:52:04;98381.34;;;-1.30;94.92
63819;BME280;49970;54.976;73.248;2022-11-15T18:54:35;98389.75;;;-1.25;94.97
63819;BME280;49970;54.976;73.248;2022-11-15T18:57:08;98397.22;;;-1.19;94.94
63819;BME280;49970;54.976;73.248;2022-11-15T18:59:39;98395.13;;;-1.12;94.86
63819;BME280;49970;54.976;73.248;2022-11-15T19:02:20;98399.16;;;-1.07;94.65
63819;BME280;49970;54.976;73.248;2022-11-15T19:04:52;98402.41;;;-1.03;94.69
63819;BME280;49970;54.976;73.248;2022-11-15T19:07:23;98407.88;;;-1.08;94.63
63819;BME280;49970;54.976;73.248;2022-11-15T19:09:54;98407.34;;;-1.14;94.75
63819;BME280;49970;54.976;73.248;2022-11-15T19:12:25;98413.13;;;-1.25;94.62
63819;BME280;49970;54.976;73.248;2022-11-15T19:14:58;98412.22;;;-1.24;95.28
63819;BME280;49970;54.976;73.248;2022-11-15T19:17:30;98403.84;;;-1.29;95.11